Time;durP1;ratioP1;P1;durP2;ratioP2;P2;SDS_P1;SDS_P2;PMS_P1;PMS_P2;Temp;Humidity;BMP_temperature;BMP_pressure;BME280_temperature;BME280_humidity;BME280_pressure;Samples;Min_cycle;Max_cycle;Signal;HPM_P1;HPM_P2
2023/05/14 00:01:26;;;;;;;0.50;0.40;;;;;;;16.42;100.00;95901.78;5072517;28;20482;-66
2023/05/14 00:03:55;;;;;;;1.23;0.47;;;;;;;16.40;100.00;95900.50;5072586;28;20516;-66
2023/05/14 00:06:23;;;;;;;0.40;0.20;;;;;;;16.57;100.00;95897.31;5072618;28;20438;-66
2023/05/14 00:08:51;;;;;;;0.30;0.30;;;;;;;16.74;100.00;95892.22;5072629;28;20441;-66
2023/05/14 00:11:20;;;;;;;1.07;0.40;;;;;;;16.54;100.00;95868.47;5071939;28;20433;-66
2023/05/14 00:13:49;;;;;;;0.50;0.47;;;;;;;16.41;100.00;95817.28;5072227;28;20533;-66
2023/05/14 00:16:17;;;;;;;0.50;0.50;;;;;;;16.92;100.00;95886.03;5072282;28;20433;-66
2023/05/14 00:18:47;;;;;;;0.30;0.20;;;;;;;16.58;100.00;95875.63;5072457;28;20441;-66
2023/05/14 00:21:16;;;;;;;0.57;0.53;;;;;;;16.42;100.00;95872.34;5058762;28;20845;-66
2023/05/14 00:23:44;;;;;;;0.50;0.40;;;;;;;16.43;100.00;95863.25;5071938;28;20852;-66
2023/05/14 00:26:12;;;;;;;1.00;0.83;;;;;;;16.67;100.00;95862.38;5059309;28;20448;-66
2023/05/14 00:28:40;;;;;;;0.40;0.30;;;;;;;16.86;100.00;95853.19;5071886;28;20434;-66
2023/05/14 00:31:09;;;;;;;0.87;0.40;;;;;;;16.40;100.00;95861.16;5072439;28;20517;-66
2023/05/14 00:33:37;;;;;;;0.40;0.30;;;;;;;16.70;100.00;95867.09;5071846;28;20446;-66
2023/05/14 00:36:07;;;;;;;0.40;0.20;;;;;;;16.50;100.00;95852.97;5072183;28;20473;-66
2023/05/14 00:38:36;;;;;;;0.53;0.40;;;;;;;16.61;100.00;95858.97;5071798;28;20469;-66
2023/05/14 00:41:04;;;;;;;0.60;0.33;;;;;;;16.71;100.00;95858.81;5072083;28;20437;-67
2023/05/14 00:43:33;;;;;;;0.40;0.40;;;;;;;16.71;100.00;95856.13;5071772;28;20513;-65
2023/05/14 00:46:01;;;;;;;0.77;0.77;;;;;;;16.79;100.00;95865.38;5070986;28;20938;-65
2023/05/14 00:48:29;;;;;;;0.40;0.30;;;;;;;16.41;100.00;95857.41;5071739;28;20433;-65
2023/05/14 00:50:58;;;;;;;0.40;0.40;;;;;;;16.39;100.00;95856.09;5072125;28;20548;-65
2023/05/14 00:53:28;;;;;;;0.67;0.67;;;;;;;16.26;100.00;95852.31;5071726;28;20442;-64
2023/05/14 00:55:58;;;;;;;0.50;0.50;;;;;;;16.44;100.00;95843.41;5071934;28;20448;-65
2023/05/14 00:58:26;;;;;;;0.40;0.30;;;;;;;16.38;100.00;95839.25;5071443;28;20548;-64
2023/05/14 01:00:55;;;;;;;0.50;0.50;;;;;;;16.15;100.00;95829.47;5071875;28;20439;-64
2023/05/14 01:03:23;;;;;;;0.93;0.77;;;;;;;15.98;100.00;95845.25;5071651;28;20536;-65
2023/05/14 01:05:59;;;;;;;0.40;0.30;;;;;;;16.18;100.00;95839.59;5071726;28;20479;-65
2023/05/14 01:08:34;;;;;;;0.70;0.50;;;;;;;16.26;100.00;95841.59;5047496;28;20433;-65
2023/05/14 01:11:06;;;;;;;0.60;0.47;;;;;;;16.09;100.00;95825.28;5071227;28;20488;-65
2023/05/14 01:13:42;;;;;;;0.50;0.30;;;;;;;16.11;100.00;95841.03;5071452;28;20448;-64
2023/05/14 01:16:13;;;;;;;0.40;0.30;;;;;;;16.00;100.00;95840.38;5071326;28;20490;-64
2023/05/14 01:18:44;;;;;;;0.50;0.40;;;;;;;15.77;100.00;95823.34;5071718;28;20528;-65
2023/05/14 01:21:47;;;;;;;0.40;0.30;;;;;;;16.34;100.00;95861.53;5071517;28;20445;-65
2023/05/14 01:24:16;;;;;;;0.60;0.50;;;;;;;16.15;100.00;95858.88;5069575;28;21012;-65
2023/05/14 01:26:45;;;;;;;1.53;1.43;;;;;;;15.60;100.00;95857.00;5071667;28;20930;-65
2023/05/14 01:29:19;;;;;;;0.60;0.50;;;;;;;15.64;100.00;95828.59;5059436;28;20453;-65
2023/05/14 01:31:50;;;;;;;0.50;0.40;;;;;;;15.70;100.00;95854.19;5071311;28;20963;-65
2023/05/14 01:34:21;;;;;;;0.40;0.30;;;;;;;15.22;100.00;95854.22;5071573;28;20443;-65
2023/05/14 01:36:51;;;;;;;0.40;0.37;;;;;;;15.27;100.00;95846.16;5071111;28;20444;-66
2023/05/14 01:39:21;;;;;;;0.60;0.50;;;;;;;15.48;100.00;95845.94;5071350;28;20447;-66
2023/05/14 01:41:51;;;;;;;0.60;0.40;;;;;;;15.70;100.00;95854.19;5071032;28;20441;-65
2023/05/14 01:44:20;;;;;;;0.53;0.50;;;;;;;15.58;100.00;95859.97;5071274;28;20476;-65
2023/05/14 01:46:48;;;;;;;0.53;0.53;;;;;;;15.61;100.00;95855.94;5071760;28;20461;-65
2023/05/14 01:49:17;;;;;;;0.40;0.30;;;;;;;15.98;100.00;95858.59;5060764;28;20862;-66
2023/05/14 01:51:45;;;;;;;0.50;0.40;;;;;;;16.12;100.00;95870.16;5068914;28;20521;-67
2023/05/14 01:54:14;;;;;;;0.50;0.40;;;;;;;16.24;100.00;95859.78;5071108;28;20516;-67
2023/05/14 01:56:43;;;;;;;0.60;0.40;;;;;;;16.31;100.00;95860.25;5070881;28;20525;-66
2023/05/14 01:59:12;;;;;;;0.63;0.63;;;;;;;16.28;100.00;95860.81;5071381;28;20442;-66
2023/05/14 02:01:40;;;;;;;0.30;0.30;;;;;;;16.34;100.00;95858.88;5065642;28;20430;-66
2023/05/14 02:04:08;;;;;;;0.40;0.30;;;;;;;16.41;100.00;95848.59;5064450;28;20429;-66
2023/05/14 02:06:37;;;;;;;0.40;0.40;;;;;;;16.03;100.00;95865.75;5070624;28;20529;-66
2023/05/14 02:09:05;;;;;;;0.47;0.47;;;;;;;16.13;100.00;95855.72;5071413;28;20429;-65
2023/05/14 02:11:33;;;;;;;0.40;0.40;;;;;;;16.14;100.00;95867.97;5071106;28;20484;-66
2023/05/14 02:14:03;;;;;;;0.50;0.30;;;;;;;16.09;100.00;95859.25;5070844;28;20537;-66
2023/05/14 02:16:31;;;;;;;0.40;0.30;;;;;;;16.20;100.00;95874.06;5071430;28;20818;-66
2023/05/14 02:19:00;;;;;;;0.37;0.27;;;;;;;16.02;100.00;95880.19;5071032;28;20441;-66
2023/05/14 02:21:28;;;;;;;0.47;0.40;;;;;;;15.59;100.00;95874.09;5074549;28;20430;-66
2023/05/14 02:23:56;;;;;;;0.40;0.30;;;;;;;15.50;100.00;95878.50;5074963;28;20436;-65
2023/05/14 02:26:24;;;;;;;0.40;0.30;;;;;;;15.47;100.00;95881.75;5065110;28;20540;-66
2023/05/14 02:28:53;;;;;;;0.40;0.30;;;;;;;15.60;100.00;95870.34;5070569;28;20461;-66
2023/05/14 02:31:22;;;;;;;0.40;0.30;;;;;;;15.75;100.00;95873.63;5074323;28;20448;-66
2023/05/14 02:33:51;;;;;;;0.90;0.90;;;;;;;16.02;100.00;95874.84;5073384;28;20456;-66
2023/05/14 02:36:19;;;;;;;0.60;0.40;;;;;;;15.92;100.00;95862.44;5074346;28;20445;-66
2023/05/14 02:38:47;;;;;;;0.50;0.50;;;;;;;16.24;100.00;95856.34;5074765;28;20437;-66
2023/05/14 02:41:16;;;;;;;0.40;0.30;;;;;;;15.95;100.00;95864.53;5074352;28;20877;-66
2023/05/14 02:43:45;;;;;;;0.40;0.30;;;;;;;15.65;100.00;95855.06;5074039;28;20429;-66
2023/05/14 02:46:13;;;;;;;0.40;0.20;;;;;;;15.63;100.00;95853.75;5074204;28;20469;-66
2023/05/14 02:48:43;;;;;;;0.50;0.30;;;;;;;15.97;100.00;95865.03;5074270;28;20434;-66
2023/05/14 02:51:11;;;;;;;0.50;0.40;;;;;;;16.08;100.00;95871.81;5074480;28;20499;-66
2023/05/14 02:53:39;;;;;;;5.00;0.50;;;;;;;16.11;100.00;95871.25;5073954;28;20444;-66
2023/05/14 02:56:08;;;;;;;0.50;0.50;;;;;;;16.15;100.00;95866.09;5073925;28;20438;-66
2023/05/14 02:58:36;;;;;;;1.43;0.70;;;;;;;16.06;100.00;95867.84;5073978;28;20818;-66
2023/05/14 03:01:04;;;;;;;0.40;0.33;;;;;;;15.98;100.00;95868.50;5073868;28;20443;-65
2023/05/14 03:03:35;;;;;;;0.50;0.40;;;;;;;15.81;100.00;95861.00;5074177;28;20444;-66
2023/05/14 03:06:05;;;;;;;0.40;0.30;;;;;;;15.63;100.00;95830.50;5073660;28;20473;-66
2023/05/14 03:08:34;;;;;;;0.50;0.40;;;;;;;15.94;100.00;95851.47;5073982;28;20438;-65
2023/05/14 03:11:02;;;;;;;0.60;0.60;;;;;;;16.09;100.00;95851.22;5073339;28;20441;-66
2023/05/14 03:13:30;;;;;;;0.43;0.33;;;;;;;15.94;100.00;95849.56;5073796;28;20803;-66
2023/05/14 03:15:59;;;;;;;0.40;0.30;;;;;;;15.77;100.00;95854.63;5072678;28;20470;-66
2023/05/14 03:18:29;;;;;;;0.50;0.40;;;;;;;15.89;100.00;95847.75;5072811;28;20495;-66
2023/05/14 03:20:57;;;;;;;0.40;0.30;;;;;;;16.02;100.00;95853.47;5073085;28;20437;-66
2023/05/14 03:23:27;;;;;;;0.40;0.40;;;;;;;16.12;100.00;95861.31;5073553;28;21011;-65
2023/05/14 03:25:56;;;;;;;0.40;0.20;;;;;;;16.20;100.00;95864.16;5073147;28;20475;-67
2023/05/14 03:28:24;;;;;;;0.70;0.60;;;;;;;15.87;100.00;95865.97;5073745;28;20448;-68
2023/05/14 03:30:53;;;;;;;0.50;0.47;;;;;;;15.98;100.00;95855.94;5071986;28;20784;-68
2023/05/14 03:33:21;;;;;;;0.83;0.63;;;;;;;15.96;100.00;95868.00;5073458;28;20442;-68
2023/05/14 03:35:50;;;;;;;0.70;0.47;;;;;;;15.77;100.00;95870.66;5073156;28;20965;-68
2023/05/14 03:38:18;;;;;;;0.40;0.30;;;;;;;15.91;100.00;95876.09;5073789;28;20433;-67
2023/05/14 03:40:48;;;;;;;0.40;0.20;;;;;;;16.03;100.00;95887.94;5073638;28;20438;-67
2023/05/14 03:43:16;;;;;;;0.43;0.40;;;;;;;16.08;100.00;95887.06;5073055;28;20444;-67
2023/05/14 03:45:45;;;;;;;0.40;0.30;;;;;;;15.91;100.00;95881.44;5073198;28;20556;-68
2023/05/14 03:48:13;;;;;;;1.33;0.60;;;;;;;15.61;100.00;95866.63;5073159;28;20466;-67
2023/05/14 03:50:42;;;;;;;0.67;0.67;;;;;;;15.85;100.00;95852.09;5073115;28;20434;-67
2023/05/14 03:53:10;;;;;;;0.40;0.30;;;;;;;15.55;100.00;95865.88;5072742;28;20438;-67
2023/05/14 03:55:38;;;;;;;1.17;0.63;;;;;;;15.75;100.00;95868.28;5072949;28;20441;-68
2023/05/14 03:58:13;;;;;;;1.00;0.40;;;;;;;15.93;100.00;95872.06;5072382;28;20452;-68
2023/05/14 04:00:41;;;;;;;0.40;0.40;;;;;;;16.09;100.00;95877.97;5073247;28;20817;-68
2023/05/14 04:03:09;;;;;;;0.37;0.30;;;;;;;16.04;100.00;95881.50;5072590;28;20457;-66
2023/05/14 04:05:38;;;;;;;0.50;0.40;;;;;;;15.87;100.00;95894.56;5072450;28;20466;-67
2023/05/14 04:08:06;;;;;;;0.57;0.40;;;;;;;16.21;100.00;95895.19;5071633;28;20462;-68
2023/05/14 04:10:35;;;;;;;0.50;0.50;;;;;;;16.06;100.00;95899.94;5071981;28;20442;-67
2023/05/14 04:13:03;;;;;;;0.87;0.87;;;;;;;16.21;100.00;95913.09;5071966;28;20532;-67
2023/05/14 04:15:34;;;;;;;0.67;0.60;;;;;;;16.18;100.00;95913.66;5072103;28;20465;-66
2023/05/14 04:18:02;;;;;;;0.63;0.63;;;;;;;15.99;100.00;95916.31;5072256;28;20430;-66
2023/05/14 04:20:31;;;;;;;0.57;0.57;;;;;;;15.77;100.00;95918.78;5076033;28;20446;-65
2023/05/14 04:23:00;;;;;;;1.83;0.47;;;;;;;15.57;100.00;95922.50;5093107;28;20528;-66
2023/05/14 04:25:29;;;;;;;7.50;1.10;;;;;;;15.51;100.00;95917.50;5073261;28;20791;-65
2023/05/14 04:27:57;;;;;;;0.70;0.50;;;;;;;15.23;100.00;95925.22;5072560;28;21062;-66
2023/05/14 04:30:26;;;;;;;0.50;0.50;;;;;;;15.11;100.00;95922.16;5072001;28;20477;-66
2023/05/14 04:32:56;;;;;;;0.63;0.50;;;;;;;15.62;100.00;95919.75;5072158;28;20457;-66
2023/05/14 04:35:25;;;;;;;0.93;0.93;;;;;;;15.83;100.00;95906.94;5072335;28;20512;-66
2023/05/14 04:37:53;;;;;;;0.60;0.40;;;;;;;15.97;100.00;95901.66;5071728;28;20438;-66
2023/05/14 04:40:22;;;;;;;0.47;0.40;;;;;;;15.50;100.00;95889.19;5072101;28;20922;-66
2023/05/14 04:42:51;;;;;;;0.40;0.40;;;;;;;15.75;100.00;95884.31;5071675;28;20446;-66
2023/05/14 04:45:19;;;;;;;0.40;0.30;;;;;;;15.95;100.00;95893.94;5071619;28;20524;-65
2023/05/14 04:47:48;;;;;;;0.40;0.30;;;;;;;15.49;100.00;95922.31;5071855;28;21000;-66
2023/05/14 04:50:18;;;;;;;2.40;0.53;;;;;;;15.41;100.00;95926.38;5071418;28;20446;-63
2023/05/14 04:52:46;;;;;;;0.60;0.40;;;;;;;15.16;100.00;95929.31;5071723;28;20441;-66
2023/05/14 04:55:14;;;;;;;0.50;0.30;;;;;;;15.35;100.00;95914.19;5071562;28;20442;-64
2023/05/14 04:57:43;;;;;;;0.70;0.40;;;;;;;15.64;100.00;95922.94;5072126;28;20434;-64
2023/05/14 05:00:12;;;;;;;0.40;0.30;;;;;;;16.02;100.00;95921.09;5071740;28;20529;-63
2023/05/14 05:02:41;;;;;;;0.40;0.40;;;;;;;16.09;100.00;95910.84;5071714;28;20442;-63
2023/05/14 05:05:10;;;;;;;0.60;0.30;;;;;;;15.94;100.00;95921.75;5071591;28;20988;-64
2023/05/14 05:07:39;;;;;;;0.40;0.30;;;;;;;16.07;100.00;95922.91;5071657;28;20958;-64
2023/05/14 05:10:09;;;;;;;0.50;0.30;;;;;;;16.04;100.00;95908.22;5071510;28;20857;-60
2023/05/14 05:12:38;;;;;;;0.40;0.40;;;;;;;16.07;100.00;95918.38;5071439;28;20492;-64
2023/05/14 05:15:08;;;;;;;1.37;0.60;;;;;;;16.16;100.00;95921.19;5071628;28;20517;-64
2023/05/14 05:17:36;;;;;;;0.40;0.30;;;;;;;16.29;100.00;95931.94;5071631;28;20876;-64
2023/05/14 05:20:08;;;;;;;1.17;1.07;;;;;;;15.68;100.00;95941.88;5071590;28;20800;-64
2023/05/14 05:22:37;;;;;;;0.43;0.43;;;;;;;15.92;100.00;95952.53;5071377;28;20442;-63
2023/05/14 05:25:07;;;;;;;0.50;0.40;;;;;;;16.17;100.00;95952.97;5071544;28;20434;-63
2023/05/14 05:27:36;;;;;;;0.50;0.40;;;;;;;16.29;100.00;95950.66;5071077;28;20496;-63
2023/05/14 05:30:05;;;;;;;0.60;0.60;;;;;;;16.39;100.00;95960.44;5071443;28;20444;-63
2023/05/14 05:32:34;;;;;;;0.40;0.30;;;;;;;16.40;100.00;95954.81;5071144;28;20468;-62
2023/05/14 05:35:02;;;;;;;0.40;0.33;;;;;;;16.37;100.00;95959.91;5071740;28;20507;-63
2023/05/14 05:37:30;;;;;;;0.50;0.40;;;;;;;16.31;100.00;95956.56;5071722;28;20455;-63
2023/05/14 05:39:59;;;;;;;0.60;0.60;;;;;;;16.38;100.00;95970.34;5071083;28;20446;-62
2023/05/14 05:42:28;;;;;;;0.40;0.40;;;;;;;15.83;100.00;95974.56;5071397;28;20803;-62
2023/05/14 05:44:57;;;;;;;1.47;0.50;;;;;;;15.78;100.00;95977.31;5070810;28;20452;-63
2023/05/14 05:47:25;;;;;;;0.47;0.47;;;;;;;15.64;100.00;95978.25;5071306;28;20936;-63
2023/05/14 05:49:53;;;;;;;0.93;0.93;;;;;;;15.93;100.00;95989.69;5071076;28;20469;-63
2023/05/14 05:52:22;;;;;;;1.30;1.30;;;;;;;15.76;100.00;95990.13;5070928;28;20520;-63
2023/05/14 05:54:50;;;;;;;0.50;0.43;;;;;;;15.59;100.00;95991.66;5072682;28;20476;-64
2023/05/14 05:57:20;;;;;;;0.43;0.43;;;;;;;15.90;100.00;95998.28;5074922;28;20472;-64
2023/05/14 05:59:51;;;;;;;3.57;0.50;;;;;;;15.67;100.00;95999.06;5074918;28;20960;-65
2023/05/14 06:02:20;;;;;;;1.23;0.30;;;;;;;16.10;100.00;95990.00;5075408;28;20444;-64
2023/05/14 06:04:48;;;;;;;0.60;0.60;;;;;;;16.02;100.00;95995.97;5074746;28;21017;-63
2023/05/14 06:07:17;;;;;;;0.50;0.50;;;;;;;16.18;100.00;95988.56;5074859;28;21012;-63
2023/05/14 06:09:45;;;;;;;0.40;0.30;;;;;;;16.28;100.00;96015.16;5074750;28;20436;-63
2023/05/14 06:12:13;;;;;;;1.40;0.50;;;;;;;15.79;100.00;96012.81;5074663;28;20440;-63
2023/05/14 06:14:41;;;;;;;4.13;0.60;;;;;;;15.96;100.00;96013.19;5074171;28;20481;-63
2023/05/14 06:17:11;;;;;;;1.50;1.40;;;;;;;15.77;100.00;96017.66;5074461;28;20445;-63
2023/05/14 06:19:40;;;;;;;0.80;0.50;;;;;;;15.75;100.00;96014.47;5048278;28;20528;-63
2023/05/14 06:22:08;;;;;;;0.40;0.40;;;;;;;15.90;100.00;95992.91;5074638;28;20439;-64
2023/05/14 06:24:36;;;;;;;1.07;0.67;;;;;;;16.02;100.00;96003.19;5073620;28;20440;-64
2023/05/14 06:27:05;;;;;;;0.60;0.60;;;;;;;15.66;100.00;96022.31;5073857;28;20564;-64
2023/05/14 06:29:33;;;;;;;0.63;0.60;;;;;;;15.68;100.00;96001.47;5074356;28;20488;-64
2023/05/14 06:32:02;;;;;;;3.33;1.20;;;;;;;15.85;100.00;96020.53;5074395;28;20433;-64
2023/05/14 06:34:33;;;;;;;0.53;0.50;;;;;;;15.81;100.00;96021.38;5073667;28;20511;-64
2023/05/14 06:37:02;;;;;;;0.60;0.47;;;;;;;15.64;100.00;95983.59;5074352;28;20507;-65
2023/05/14 06:39:31;;;;;;;0.90;0.90;;;;;;;15.56;100.00;96009.06;5074644;28;20485;-64
2023/05/14 06:41:59;;;;;;;0.40;0.30;;;;;;;15.83;100.00;96001.31;5069995;28;20466;-64
2023/05/14 06:44:27;;;;;;;0.40;0.40;;;;;;;16.17;100.00;96014.50;5064326;28;20802;-64
2023/05/14 06:46:56;;;;;;;0.60;0.40;;;;;;;16.34;100.00;96025.50;5072443;28;20949;-64
2023/05/14 06:49:24;;;;;;;0.43;0.40;;;;;;;16.38;100.00;96015.84;5072324;28;20528;-63
2023/05/14 06:51:54;;;;;;;0.40;0.40;;;;;;;16.58;100.00;96020.13;5071708;28;20433;-62
2023/05/14 06:54:22;;;;;;;0.63;0.63;;;;;;;16.44;100.00;96020.00;5072013;28;20926;-63
2023/05/14 06:56:50;;;;;;;0.73;0.63;;;;;;;16.39;100.00;96017.41;5071473;28;20430;-62
2023/05/14 06:59:19;;;;;;;2.40;1.40;;;;;;;16.32;100.00;96008.94;5072319;28;20438;-63
2023/05/14 07:01:47;;;;;;;0.60;0.40;;;;;;;16.37;100.00;96011.56;5073759;28;20477;-63
2023/05/14 07:04:15;;;;;;;1.50;1.40;;;;;;;16.15;100.00;96007.84;5073776;28;20466;-63
2023/05/14 07:06:44;;;;;;;0.50;0.40;;;;;;;16.10;100.00;96018.59;5047190;28;20437;-63
2023/05/14 07:09:13;;;;;;;0.63;0.30;;;;;;;16.10;100.00;96000.69;5072935;28;20597;-62
2023/05/14 07:11:42;;;;;;;0.40;0.30;;;;;;;16.36;100.00;95991.25;5073614;28;20437;-63
2023/05/14 07:14:10;;;;;;;0.50;0.50;;;;;;;16.30;100.00;95989.72;5073268;28;20836;-63
2023/05/14 07:16:39;;;;;;;0.50;0.50;;;;;;;16.23;100.00;95991.16;5073640;28;20880;-63
2023/05/14 07:19:07;;;;;;;0.40;0.40;;;;;;;16.29;100.00;95980.09;5073216;28;21071;-63
2023/05/14 07:21:35;;;;;;;0.30;0.30;;;;;;;15.80;100.00;95940.38;5073544;28;20434;-63
2023/05/14 07:24:04;;;;;;;0.50;0.40;;;;;;;16.09;100.00;95985.72;5073583;28;20430;-63
2023/05/14 07:26:34;;;;;;;1.07;0.40;;;;;;;16.11;100.00;95980.91;5073436;28;20567;-63
2023/05/14 07:29:02;;;;;;;0.60;0.40;;;;;;;16.26;100.00;95978.03;5073221;28;20538;-63
2023/05/14 07:31:30;;;;;;;0.60;0.60;;;;;;;15.82;100.00;95974.84;5073399;28;20434;-62
2023/05/14 07:33:59;;;;;;;2.00;0.73;;;;;;;15.85;100.00;95944.88;5073157;28;20858;-62
2023/05/14 07:36:27;;;;;;;0.80;0.50;;;;;;;15.69;100.00;95965.63;5073583;28;20440;-63
2023/05/14 07:38:55;;;;;;;0.67;0.67;;;;;;;15.58;100.00;95990.09;5072960;28;20958;-63
2023/05/14 07:41:24;;;;;;;1.23;0.90;;;;;;;15.41;100.00;95995.03;5073364;28;20439;-63
2023/05/14 07:43:54;;;;;;;0.97;0.97;;;;;;;15.34;100.00;95984.69;5072909;28;20445;-63
2023/05/14 07:46:22;;;;;;;0.50;0.50;;;;;;;15.44;100.00;95997.94;5073058;28;20441;-63
2023/05/14 07:48:51;;;;;;;1.10;1.10;;;;;;;15.31;100.00;95990.59;5072624;28;20469;-63
2023/05/14 07:51:19;;;;;;;0.60;0.60;;;;;;;15.45;100.00;96001.41;5072947;28;20524;-63
2023/05/14 07:53:47;;;;;;;0.73;0.73;;;;;;;15.28;100.00;95946.53;5047052;28;20430;-63
2023/05/14 07:56:15;;;;;;;1.03;1.03;;;;;;;15.61;100.00;96008.25;5072753;28;20491;-64
2023/05/14 07:58:44;;;;;;;1.47;1.37;;;;;;;15.47;100.00;96004.63;5072694;28;20815;-63
2023/05/14 08:01:14;;;;;;;0.50;0.50;;;;;;;15.76;100.00;95992.03;5072311;28;20425;-64
2023/05/14 08:03:42;;;;;;;0.40;0.40;;;;;;;15.80;100.00;96017.09;5072589;28;20469;-64
2023/05/14 08:06:10;;;;;;;0.80;0.60;;;;;;;15.66;100.00;96024.22;5072516;28;20525;-64
2023/05/14 08:08:39;;;;;;;0.63;0.63;;;;;;;15.97;100.00;96008.59;5072587;28;20481;-64
2023/05/14 08:11:07;;;;;;;4.50;0.83;;;;;;;15.87;100.00;96007.66;5072200;28;20508;-64
2023/05/14 08:13:35;;;;;;;1.30;1.20;;;;;;;16.04;100.00;96017.09;5072408;28;20453;-64
2023/05/14 08:16:04;;;;;;;0.70;0.70;;;;;;;16.38;100.00;96013.16;5072211;28;20434;-64
2023/05/14 08:18:34;;;;;;;2.30;1.50;;;;;;;16.09;100.00;96004.44;5071733;28;20445;-64
2023/05/14 08:21:02;;;;;;;1.03;0.97;;;;;;;15.40;100.00;96002.28;5071587;28;20434;-64
2023/05/14 08:23:31;;;;;;;0.70;0.70;;;;;;;15.79;100.00;95994.91;5071588;28;20438;-64
2023/05/14 08:25:59;;;;;;;0.60;0.60;;;;;;;16.15;100.00;95994.47;5071588;28;20824;-64
2023/05/14 08:28:27;;;;;;;0.50;0.50;;;;;;;16.43;100.00;96001.59;5072161;28;20469;-63
2023/05/14 08:30:56;;;;;;;0.57;0.50;;;;;;;16.69;100.00;96005.53;5071971;28;20434;-63
2023/05/14 08:33:24;;;;;;;1.37;0.87;;;;;;;16.63;100.00;96008.56;5071413;28;20466;-64
2023/05/14 08:35:55;;;;;;;1.07;1.07;;;;;;;16.70;100.00;96007.09;5071629;28;20465;-63
2023/05/14 08:38:23;;;;;;;0.70;0.70;;;;;;;16.43;100.00;96010.41;5072056;28;20456;-63
2023/05/14 08:40:57;;;;;;;1.10;1.00;;;;;;;15.92;100.00;96014.81;5072148;28;20440;-63
2023/05/14 08:43:27;;;;;;;0.50;0.50;;;;;;;16.10;100.00;95995.34;5071170;28;20468;-63
2023/05/14 08:46:01;;;;;;;0.60;0.47;;;;;;;16.26;100.00;96007.44;5071597;28;20466;-63
2023/05/14 08:48:33;;;;;;;0.70;0.50;;;;;;;16.21;100.00;95996.00;5071455;28;20975;-62
2023/05/14 08:51:03;;;;;;;0.80;0.80;;;;;;;16.18;100.00;95962.63;5071499;28;20520;-62
2023/05/14 08:53:31;;;;;;;0.63;0.63;;;;;;;16.37;100.00;95986.69;5073704;28;20433;-64
2023/05/14 08:56:01;;;;;;;0.63;0.63;;;;;;;16.26;100.00;95970.00;5077683;28;20448;-63
2023/05/14 08:58:29;;;;;;;1.43;0.97;;;;;;;16.38;100.00;95972.22;5072151;28;20438;-63
2023/05/14 09:00:58;;;;;;;0.60;0.53;;;;;;;16.65;100.00;95964.34;5059321;28;20939;-62
2023/05/14 09:03:27;;;;;;;0.87;0.83;;;;;;;17.00;100.00;95979.84;5070839;28;20438;-62
2023/05/14 09:05:55;;;;;;;0.83;0.83;;;;;;;17.01;100.00;95981.44;5071689;28;20437;-62
2023/05/14 09:08:28;;;;;;;1.00;1.00;;;;;;;16.24;100.00;95996.22;5058631;28;20473;-61
2023/05/14 09:10:56;;;;;;;0.70;0.70;;;;;;;16.83;99.38;95984.16;5071566;28;20437;-61
2023/05/14 09:13:25;;;;;;;1.50;0.90;;;;;;;17.12;100.00;95976.72;5071517;28;20437;-61
2023/05/14 09:15:56;;;;;;;0.60;0.50;;;;;;;17.01;100.00;95975.28;5071532;28;20514;-62
2023/05/14 09:18:25;;;;;;;0.87;0.63;;;;;;;17.10;99.07;95963.59;5071663;28;20479;-62
2023/05/14 09:20:53;;;;;;;0.73;0.73;;;;;;;17.15;100.00;95965.41;5068287;28;20438;-62
2023/05/14 09:23:21;;;;;;;0.63;0.63;;;;;;;16.90;100.00;95963.94;5061326;28;20524;-62
2023/05/14 09:25:51;;;;;;;1.27;1.17;;;;;;;16.65;99.29;95910.03;5071373;28;20441;-62
2023/05/14 09:28:20;;;;;;;0.50;0.40;;;;;;;15.98;100.00;95944.16;5071942;28;20477;-61
2023/05/14 09:30:51;;;;;;;0.60;0.40;;;;;;;16.35;100.00;95970.94;5075116;28;20441;-62
2023/05/14 09:33:27;;;;;;;0.30;0.30;;;;;;;16.61;100.00;95971.38;5075674;28;20661;-61
2023/05/14 09:35:58;;;;;;;0.70;0.70;;;;;;;17.08;100.00;95960.44;5075477;28;20445;-61
2023/05/14 09:38:30;;;;;;;0.40;0.40;;;;;;;16.69;100.00;95948.50;5075328;28;20445;-61
2023/05/14 09:41:00;;;;;;;0.60;0.60;;;;;;;16.69;100.00;95967.25;5075166;28;20926;-61
2023/05/14 09:43:29;;;;;;;0.40;0.40;;;;;;;16.52;100.00;95965.06;5074958;28;20471;-60
2023/05/14 09:45:57;;;;;;;0.70;0.70;;;;;;;16.71;100.00;95959.72;5075659;28;20465;-62
2023/05/14 09:48:26;;;;;;;0.50;0.30;;;;;;;16.84;99.19;95972.38;5075414;28;20525;-61
2023/05/14 09:50:54;;;;;;;0.40;0.33;;;;;;;16.95;100.00;95977.25;5075390;28;20520;-61
2023/05/14 09:53:22;;;;;;;0.40;0.40;;;;;;;17.07;100.00;95976.81;5075104;28;20429;-61
2023/05/14 09:55:51;;;;;;;1.07;0.60;;;;;;;17.47;98.38;95981.44;5075167;28;20438;-61
2023/05/14 09:58:20;;;;;;;0.80;0.50;;;;;;;17.18;99.69;95972.84;5075242;28;20433;-61
2023/05/14 10:00:49;;;;;;;0.57;0.57;;;;;;;16.86;100.00;95981.69;5075389;28;20434;-61
2023/05/14 10:03:20;;;;;;;0.40;0.30;;;;;;;16.66;100.00;95973.19;5069358;28;20434;-61
2023/05/14 10:05:49;;;;;;;0.40;0.40;;;;;;;16.57;100.00;95965.00;5068288;28;20434;-61
2023/05/14 10:08:24;;;;;;;0.40;0.33;;;;;;;16.99;100.00;95956.06;5049082;28;20433;-61
2023/05/14 10:10:55;;;;;;;0.57;0.57;;;;;;;16.91;100.00;95954.84;5074230;28;20476;-61
2023/05/14 10:13:30;;;;;;;2.60;0.50;;;;;;;16.98;100.00;95954.44;5066240;28;20435;-61
2023/05/14 10:16:05;;;;;;;0.40;0.30;;;;;;;17.42;99.75;95960.09;5071321;28;20480;-61
2023/05/14 10:18:40;;;;;;;0.40;0.20;;;;;;;17.29;98.89;95962.75;5074860;28;20469;-61
2023/05/14 10:21:10;;;;;;;0.60;0.50;;;;;;;16.68;100.00;95912.13;5074213;28;20425;-60
2023/05/14 10:23:39;;;;;;;0.40;0.40;;;;;;;16.90;100.00;95953.22;5075032;28;20554;-61
2023/05/14 10:26:08;;;;;;;0.60;0.60;;;;;;;16.97;96.68;95956.34;5048643;28;20430;-61
2023/05/14 10:28:38;;;;;;;0.40;0.30;;;;;;;17.03;94.91;95949.81;5074320;28;20442;-61
2023/05/14 10:31:09;;;;;;;0.43;0.30;;;;;;;17.29;97.12;95949.34;5066407;28;20440;-61
2023/05/14 10:33:48;;;;;;;0.40;0.30;;;;;;;17.33;97.60;95945.00;5069468;28;20524;-61
2023/05/14 10:36:17;;;;;;;0.53;0.53;;;;;;;17.09;98.08;95929.09;5074849;28;20468;-61
2023/05/14 10:38:47;;;;;;;0.50;0.43;;;;;;;17.10;100.00;95930.69;5074388;28;20437;-61
2023/05/14 10:41:16;;;;;;;0.40;0.30;;;;;;;16.87;96.59;95886.09;5073730;28;20525;-61
2023/05/14 10:43:47;;;;;;;0.50;0.50;;;;;;;17.27;96.53;95927.44;5074341;28;20807;-61
2023/05/14 10:46:15;;;;;;;0.40;0.30;;;;;;;17.36;94.67;95923.75;5074064;28;20441;-61
2023/05/14 10:48:44;;;;;;;0.40;0.30;;;;;;;17.94;92.90;95931.22;5074512;28;20430;-62
2023/05/14 10:51:12;;;;;;;0.40;0.30;;;;;;;18.23;92.91;95923.63;5074215;28;20523;-62
2023/05/14 10:53:43;;;;;;;0.80;0.40;;;;;;;18.16;95.02;95929.41;5074078;28;20434;-62
2023/05/14 10:56:13;;;;;;;1.73;0.40;;;;;;;17.80;100.00;95936.59;5073848;28;20476;-62
2023/05/14 10:58:43;;;;;;;0.60;0.40;;;;;;;17.48;95.01;95925.97;5048611;28;20811;-62
2023/05/14 11:01:13;;;;;;;0.40;0.30;;;;;;;17.37;91.35;95922.69;5073115;28;20523;-61
2023/05/14 11:03:43;;;;;;;0.60;0.40;;;;;;;17.44;90.65;95925.75;5062595;28;20465;-62
2023/05/14 11:06:13;;;;;;;0.50;0.30;;;;;;;17.40;91.04;95921.28;5073422;28;20444;-61
2023/05/14 11:08:41;;;;;;;0.50;0.40;;;;;;;17.46;94.30;95928.94;5073949;28;20437;-61
2023/05/14 11:11:10;;;;;;;0.50;0.30;;;;;;;17.67;98.43;95927.47;5073322;28;20484;-60
2023/05/14 11:13:39;;;;;;;0.40;0.30;;;;;;;17.87;94.33;95928.16;5074438;28;20479;-61
2023/05/14 11:16:08;;;;;;;0.40;0.30;;;;;;;17.90;91.10;95924.88;5073481;28;20942;-61
2023/05/14 11:18:41;;;;;;;0.40;0.30;;;;;;;17.72;90.73;95927.38;5073890;28;20972;-61
2023/05/14 11:21:09;;;;;;;0.93;0.93;;;;;;;17.44;94.45;95922.28;5073573;28;20470;-61
2023/05/14 11:23:37;;;;;;;0.40;0.30;;;;;;;17.29;96.30;95919.88;5073572;28;20434;-61
2023/05/14 11:26:07;;;;;;;1.33;0.47;;;;;;;17.40;96.43;95916.72;5072983;28;20441;-61
2023/05/14 11:28:36;;;;;;;0.60;0.43;;;;;;;17.63;98.33;95913.06;5073354;28;20442;-61
2023/05/14 11:31:04;;;;;;;0.90;0.90;;;;;;;17.21;97.10;95926.72;5073586;28;20480;-61
2023/05/14 11:33:32;;;;;;;0.40;0.30;;;;;;;17.09;97.55;95907.66;5073517;28;20492;-61
2023/05/14 11:36:02;;;;;;;0.40;0.30;;;;;;;17.33;97.16;95921.66;5073176;28;20437;-61